Airfield :
LOGIN :

Register | Disclaimer

   EN    FR    IT 

 










Legend :    VFR   Marginal VFR   IFR   Intensive IFR   Very Intensive IFR
Visi :
Ceiling :
>= 8 km
>= 3000ft
5 to 8 km
1000 to 3000 ft
1500m to 5 km
500 to 1000 ft
800 to 1500m
200 to 500 ft
< 800m
< 200 ft
Symbols :   Thunderstorms  Fog  Heavy snow  Heavy precipitations  Wind > 20 kt
SIGMETs :     Misc.  Thunderstorms  Icing  Turbulence  Mountain Waves  Volcanic Ashes







- Airport Elevation : 1521 ft
- IATA code : NCY
- Download approach charts


LFLP - Annecy

CURRENT METAR :
  • 270000Z AUTO 07004KT 360V160 9000 RA FEW060/// OVC100/// ///CB 17/16 Q1013

EXPIRED METARs :
  • 262330Z AUTO VRB02KT 5000 RA BR FEW050/// BKN066/// OVC084/// ///TCU 18/15 Q1014
  • 262300Z AUTO VRB02KT 9999 FEW066/// BKN078/// OVC090/// ///CB 18/15 Q1013
  • 262230Z AUTO VRB02KT 9999 -RA FEW068/// BKN086/// BKN110/// ///CB 18/15 Q1013
  • 262200Z AUTO 04005KT 020V080 9999 RA ///TCU 18/16 Q1014
  • 262130Z AUTO 14004KT 090V210 6000 RA FEW035/// SCT068/// OVC098/// ///CB 19/16 Q1015

TAF TAF LFLP
Valid from the 26 at 15:00 until the 27 at 15:00 UTC


261400Z 2615/2715 18005KT 9999 SCT070
TEMPO 2615/2623 4000 SHRA SCT050TCU BKN070
PROB40
TEMPO 2615/2622 VRB15G35KT 2000 TSRA SCT020 BKN035CB
PROB30
TEMPO 2618/2621 1400 TSGR BKN015 BKN035CB
No reported NOTAMs for that airfield.
1 SIGMET reported for the Marseille FIR (LFMM) :
 
Embedded thunderstorms
LFMM SIGMET 6 VALID 262230/270130 LFPW
LFMM MARSEILLE FIR/UIR EMBD TS FCST WI N4630 E00645 - N4630 E00700 - N4500 E00700 - N4400 E00530 - N4445 E00400 TOP FL390 MOV NE 10KT WKN=



MET'MAP, your aeronautical weather chart ! - Copyright ORBIFLY December 2007 - Disclaimer

ORBIFLY MET'MAP TEAM :

Programming & Development : Alexandra Zaïnal
Concept & Development : Baudouin d'Aumeries
Co-Development & Prog : Marc-Olivier Méhu
Technical & hardware support : Manuel Goepfert

Contact : metmap@orbifly.com




SOURCES & CREDITS :

   NOAA